Terminal Aerodrome Forecast
Issued by NWS Wichita, KS

Home | Current Version | Previous Version | Text Only | Print | Product List | Glossary On
Versions: 1 2 3 4 5 6 7 8 9 10 11 12 13 14 15 16
000
FTUS43 KICT 271440 AAB
TAFICT
TAF AMD
KICT 271440Z 2715/2812 04015KT P6SM OVC020
     FM271600 02012KT P6SM SCT025 OVC050
     FM271700 02009KT P6SM SCT035 BKN100
     FM272100 VRB03KT P6SM BKN100=

USA.gov is the U.S. government's official web portal to all federal, state and local government web resources and services.